Aquilla, Alabama
Current Conditions -  °F | °C
As of 12:58 PM on Friday 31 Oct 2014 (Local Time) from KMEI Reporting Station
Scattered Clouds Scattered Clouds  
Wind Chill: 71°   Ceiling: Unl
Heat Index: 71°   Visibility: 10mi
Dew Point: 46°   Wind: 14mph
Humidity: 41%   Direction: 340°NNW
Pressure: 29.97"   Gusts: NA
Location:  31.6272°N, 88.354°W
Report Text: KMEI 311758Z 34012KT 310V010 10SM SCT049 22/08 A2997 RMK AO2 SLP148 T02170078 10217 20044 58014
Loading
Personal Weather Stations






























Interactive Weather Map New forecast layout! Learn more

10-Day Weather Forecast

Advertisements
Track Severe Weather on mobile